createdAt,value
2019-04-05T00:01:20.641Z,5.80
2019-04-05T00:03:49.086Z,5.90
2019-04-05T00:06:17.489Z,5.90
2019-04-05T00:08:45.941Z,5.90
2019-04-05T00:11:14.357Z,5.90
2019-04-05T00:13:42.826Z,5.90
2019-04-05T00:16:11.326Z,5.90
2019-04-05T00:18:39.744Z,5.90
2019-04-05T00:21:08.174Z,5.90
2019-04-05T00:23:36.581Z,5.90
2019-04-05T00:26:05.000Z,6.00
2019-04-05T00:28:33.460Z,6.00
2019-04-05T00:31:01.854Z,5.90
2019-04-05T00:33:30.259Z,6.00
2019-04-05T00:35:58.680Z,6.00
2019-04-05T00:38:27.085Z,5.90
2019-04-05T00:40:55.512Z,5.90
2019-04-05T00:43:24.201Z,5.90
2019-04-05T00:45:52.616Z,5.90
2019-04-05T00:48:21.029Z,5.90
2019-04-05T00:50:49.444Z,5.90
2019-04-05T00:53:17.854Z,5.90
2019-04-05T00:55:46.261Z,5.90
2019-04-05T00:58:14.988Z,5.90
2019-04-05T01:00:43.656Z,5.80
2019-04-05T01:03:13.325Z,5.80
2019-04-05T01:05:42.345Z,5.80
2019-04-05T01:08:10.767Z,5.80
2019-04-05T01:10:39.166Z,5.80
2019-04-05T01:13:07.602Z,5.80
2019-04-05T01:15:41.204Z,5.80
2019-04-05T01:18:06.223Z,5.80
2019-04-05T01:20:37.242Z,5.80
2019-04-05T01:23:05.654Z,5.80
2019-04-05T01:25:35.510Z,5.80
2019-04-05T01:28:03.985Z,5.80
2019-04-05T01:30:33.398Z,5.80
2019-04-05T01:33:02.052Z,5.80
2019-04-05T01:35:30.453Z,5.80
2019-04-05T01:37:59.339Z,5.80
2019-04-05T01:40:30.282Z,5.80
2019-04-05T01:42:58.962Z,5.90
2019-04-05T01:45:27.387Z,5.90
2019-04-05T01:47:55.858Z,5.90
2019-04-05T01:50:24.267Z,5.90
2019-04-05T01:52:53.225Z,5.90
2019-04-05T01:55:21.625Z,5.90
2019-04-05T01:57:50.022Z,5.90
2019-04-05T02:00:19.192Z,5.90
2019-04-05T02:02:47.731Z,5.90
2019-04-05T02:05:17.068Z,5.90
2019-04-05T02:07:45.652Z,5.90
2019-04-05T02:10:14.480Z,5.80
2019-04-05T02:12:42.884Z,5.90
2019-04-05T02:15:14.390Z,5.90
2019-04-05T02:17:42.804Z,5.90
2019-04-05T02:20:11.648Z,5.90
2019-04-05T02:22:40.073Z,5.90
2019-04-05T02:25:08.854Z,5.90
2019-04-05T02:27:37.257Z,5.90
2019-04-05T02:30:07.367Z,5.90
2019-04-05T02:32:35.847Z,5.90
2019-04-05T02:35:05.984Z,6.00
2019-04-05T02:37:34.408Z,6.00
2019-04-05T02:40:03.382Z,5.90
2019-04-05T02:42:33.026Z,5.90
2019-04-05T02:45:01.537Z,5.90
2019-04-05T02:47:30.307Z,5.90
2019-04-05T02:49:59.733Z,5.80
2019-04-05T02:52:30.154Z,5.90
2019-04-05T02:54:59.896Z,5.80
2019-04-05T02:57:29.064Z,5.90
2019-04-05T02:59:58.631Z,5.80
2019-04-05T03:02:27.870Z,5.90
2019-04-05T03:04:56.453Z,5.80
2019-04-05T03:07:26.873Z,5.80
2019-04-05T03:09:57.418Z,5.80
2019-04-05T03:12:26.177Z,5.80
2019-04-05T03:14:55.433Z,5.80
2019-04-05T03:17:24.684Z,5.80
2019-04-05T03:19:56.158Z,5.80
2019-04-05T03:22:25.898Z,5.80
2019-04-05T03:24:54.973Z,5.70
2019-04-05T03:27:26.606Z,5.70
2019-04-05T03:29:55.550Z,5.70
2019-04-05T03:32:25.029Z,5.60
2019-04-05T03:34:53.502Z,5.60
2019-04-05T03:37:22.234Z,5.70
2019-04-05T03:39:51.037Z,5.70
2019-04-05T03:42:20.086Z,5.70
2019-04-05T03:44:48.644Z,5.70
2019-04-05T03:47:17.512Z,5.70
2019-04-05T03:49:46.090Z,5.80
2019-04-05T03:52:14.965Z,5.80
2019-04-05T03:54:43.677Z,5.90
2019-04-05T03:57:12.255Z,5.90
2019-04-05T03:59:41.014Z,5.80
2019-04-05T04:02:09.591Z,5.80
2019-04-05T04:04:38.064Z,5.80
2019-04-05T04:07:06.662Z,5.80
2019-04-05T04:09:35.064Z,5.80
2019-04-05T04:12:03.477Z,5.80
2019-04-05T04:14:31.976Z,5.80
2019-04-05T04:17:11.928Z,5.80
2019-04-05T04:19:30.987Z,5.80
2019-04-05T04:22:05.481Z,5.70
2019-04-05T04:24:34.117Z,5.80
2019-04-05T04:27:02.666Z,5.80
2019-04-05T04:29:31.162Z,5.80
2019-04-05T04:31:59.730Z,5.80
2019-04-05T04:34:28.400Z,5.70
2019-04-05T04:36:57.011Z,5.70
2019-04-05T04:39:25.694Z,5.70
2019-04-05T04:41:54.106Z,5.70
2019-04-05T04:44:22.777Z,5.60
2019-04-05T04:46:51.255Z,5.60
2019-04-05T04:49:20.027Z,5.60
2019-04-05T04:51:49.082Z,5.70
2019-04-05T04:54:17.760Z,5.70
2019-04-05T04:56:46.193Z,5.70
2019-04-05T04:59:14.675Z,5.60
2019-04-05T05:01:43.098Z,5.60
2019-04-05T05:04:11.752Z,5.60
2019-04-05T05:06:40.344Z,5.60
2019-04-05T05:09:08.818Z,5.60
2019-04-05T05:11:37.856Z,5.60
2019-04-05T05:14:06.720Z,5.60
2019-04-05T05:16:35.287Z,5.70
2019-04-05T05:19:04.172Z,5.60
2019-04-05T05:21:32.813Z,5.70
2019-04-05T05:24:01.213Z,5.70
2019-04-05T05:26:30.285Z,5.70
2019-04-05T05:28:59.318Z,5.70
2019-04-05T05:31:27.967Z,5.70
2019-04-05T05:33:56.389Z,5.70
2019-04-05T05:36:24.867Z,5.80
2019-04-05T05:38:53.276Z,5.80
2019-04-05T05:41:21.738Z,5.80
2019-04-05T05:43:50.137Z,5.80
2019-04-05T05:46:18.565Z,5.90
2019-04-05T05:48:46.992Z,5.90
2019-04-05T05:51:15.388Z,6.00
2019-04-05T05:53:44.167Z,6.00
2019-04-05T05:56:12.597Z,6.10
2019-04-05T05:58:41.034Z,6.10
2019-04-05T06:01:09.433Z,6.20
2019-04-05T06:03:37.928Z,6.20
2019-04-05T06:06:06.334Z,6.30
2019-04-05T06:08:34.766Z,6.30
2019-04-05T06:11:03.323Z,6.30
2019-04-05T06:13:31.717Z,6.40
2019-04-05T06:16:00.160Z,6.40
2019-04-05T06:18:28.550Z,6.50
2019-04-05T06:20:56.951Z,6.50
2019-04-05T06:23:33.621Z,6.60
2019-04-05T06:25:55.518Z,6.60
2019-04-05T06:28:23.909Z,6.60
2019-04-05T06:30:52.348Z,6.60
2019-04-05T06:33:30.891Z,6.60
2019-04-05T06:35:50.943Z,6.80
2019-04-05T06:38:19.379Z,6.80
2019-04-05T06:40:47.798Z,6.90
2019-04-05T06:43:16.185Z,6.90
2019-04-05T06:45:44.652Z,7.00
2019-04-05T06:48:19.572Z,6.90
2019-04-05T06:50:43.240Z,7.00
2019-04-05T06:53:11.702Z,7.10
2019-04-05T06:55:40.089Z,7.10
2019-04-05T06:58:10.347Z,7.20
2019-04-05T07:00:38.789Z,7.30
2019-04-05T07:03:07.319Z,7.30
2019-04-05T07:05:35.754Z,7.30
2019-04-05T07:08:04.241Z,7.30
2019-04-05T07:10:32.625Z,7.40
2019-04-05T07:13:01.268Z,7.40
2019-04-05T07:15:29.981Z,7.50
2019-04-05T07:17:58.372Z,7.60
2019-04-05T07:20:26.826Z,7.70
2019-04-05T07:22:55.309Z,7.70
2019-04-05T07:25:23.712Z,7.70
2019-04-05T07:27:52.130Z,7.70
2019-04-05T07:30:20.773Z,7.80
2019-04-05T07:32:49.166Z,7.90
2019-04-05T07:35:17.604Z,7.90
2019-04-05T07:37:46.000Z,8.00
2019-04-05T07:40:14.839Z,8.10
2019-04-05T07:42:43.269Z,8.20
2019-04-05T07:45:12.512Z,8.40
2019-04-05T07:47:40.900Z,8.50
2019-04-05T07:50:09.888Z,8.60
2019-04-05T07:52:38.284Z,8.70
2019-04-05T07:55:07.722Z,8.80
2019-04-05T07:57:36.137Z,9.00
2019-04-05T08:00:09.923Z,9.00
2019-04-05T08:02:38.318Z,9.10
2019-04-05T08:05:07.688Z,9.20
2019-04-05T08:07:39.166Z,9.20
2019-04-05T08:10:08.547Z,9.20
2019-04-05T08:12:37.589Z,9.30
2019-04-05T08:15:06.543Z,9.40
2019-04-05T08:17:34.943Z,9.60
2019-04-05T08:20:04.361Z,9.70
2019-04-05T08:22:32.808Z,9.90
2019-04-05T08:25:01.200Z,9.90
2019-04-05T08:27:29.643Z,9.90
2019-04-05T08:29:58.076Z,9.80
2019-04-05T08:32:26.476Z,9.80
2019-04-05T08:34:54.877Z,9.90
2019-04-05T08:37:23.579Z,10.10
2019-04-05T08:39:51.986Z,10.30
2019-04-05T08:42:20.402Z,10.50
2019-04-05T08:44:48.955Z,10.40
2019-04-05T08:47:17.380Z,10.60
2019-04-05T08:49:45.784Z,10.70
2019-04-05T08:52:14.216Z,10.50
2019-04-05T08:54:42.627Z,10.40
2019-04-05T08:57:11.030Z,10.20
2019-04-05T08:59:39.453Z,10.40
2019-04-05T09:02:07.852Z,10.50
2019-04-05T09:04:36.249Z,10.60
2019-04-05T09:07:05.170Z,10.60
2019-04-05T09:09:33.634Z,10.80
2019-04-05T09:12:02.020Z,10.70
2019-04-05T09:14:30.456Z,10.80
2019-04-05T09:16:58.878Z,10.80
2019-04-05T09:19:27.276Z,10.80
2019-04-05T09:21:55.708Z,10.50
2019-04-05T09:24:24.125Z,10.60
2019-04-05T09:26:54.315Z,10.70
2019-04-05T09:29:22.681Z,10.90
2019-04-05T09:31:51.100Z,11.10
2019-04-05T09:34:19.536Z,11.10
2019-04-05T09:36:47.964Z,11.20
2019-04-05T09:39:16.388Z,11.30
2019-04-05T09:41:44.892Z,11.40
2019-04-05T09:44:13.301Z,11.50
2019-04-05T09:46:47.939Z,11.60
2019-04-05T09:49:11.998Z,11.70
2019-04-05T09:51:40.419Z,11.80
2019-04-05T09:54:08.843Z,11.80
2019-04-05T09:56:37.243Z,11.80
2019-04-05T09:59:05.749Z,11.70
2019-04-05T10:01:34.167Z,11.70
2019-04-05T10:04:02.557Z,11.60
2019-04-05T10:06:30.984Z,11.50
2019-04-05T10:08:59.469Z,11.40
2019-04-05T10:11:27.925Z,11.40
2019-04-05T10:13:56.352Z,11.40
2019-04-05T10:16:24.791Z,11.40
2019-04-05T10:18:53.398Z,11.50
2019-04-05T10:21:21.804Z,11.70
2019-04-05T10:23:50.196Z,11.70
2019-04-05T10:26:18.625Z,11.80
2019-04-05T10:28:47.029Z,11.90
2019-04-05T10:31:15.448Z,12.00
2019-04-05T10:33:43.881Z,12.20
2019-04-05T10:36:12.285Z,12.30
2019-04-05T10:38:40.679Z,12.40
2019-04-05T10:41:09.128Z,12.50
2019-04-05T10:43:37.590Z,12.60
2019-04-05T10:46:05.999Z,12.70
2019-04-05T10:48:35.552Z,12.80
2019-04-05T10:51:04.108Z,12.70
2019-04-05T10:53:32.515Z,12.60
2019-04-05T10:56:00.942Z,12.70
2019-04-05T10:58:29.342Z,12.70
2019-04-05T11:00:57.732Z,12.50
2019-04-05T11:03:26.162Z,12.50
2019-04-05T11:05:54.560Z,12.40
2019-04-05T11:08:22.957Z,12.30
2019-04-05T11:10:51.395Z,12.20
2019-04-05T11:13:19.825Z,12.20
2019-04-05T11:15:48.482Z,12.00
2019-04-05T11:18:16.912Z,11.80
2019-04-05T11:20:48.808Z,11.70
2019-04-05T11:23:15.489Z,11.70
2019-04-05T11:25:43.900Z,11.80
2019-04-05T11:28:12.332Z,11.80
2019-04-05T11:30:43.391Z,12.00
2019-04-05T11:33:12.039Z,12.10
2019-04-05T11:35:40.528Z,12.20
2019-04-05T11:38:09.006Z,12.20
2019-04-05T11:40:38.614Z,12.30
2019-04-05T11:43:07.038Z,12.30
2019-04-05T11:45:35.780Z,12.30
2019-04-05T11:48:05.528Z,12.20
2019-04-05T11:50:35.043Z,12.10
2019-04-05T11:53:03.791Z,12.20
2019-04-05T11:55:32.204Z,12.20
2019-04-05T11:58:00.641Z,12.20
2019-04-05T12:00:42.857Z,12.20
2019-04-05T12:03:15.873Z,12.10
2019-04-05T12:05:44.284Z,12.00
2019-04-05T12:08:12.851Z,11.90
2019-04-05T12:10:41.253Z,11.90
2019-04-05T12:13:09.648Z,11.80
2019-04-05T12:15:38.357Z,11.80
2019-04-05T12:18:06.782Z,11.80
2019-04-05T12:20:48.065Z,11.70
2019-04-05T12:23:05.335Z,11.70
2019-04-05T12:25:34.513Z,11.60
2019-04-05T12:28:07.521Z,11.50
2019-04-05T12:30:33.078Z,11.50
2019-04-05T12:33:13.024Z,11.40
2019-04-05T12:35:31.609Z,11.40
2019-04-05T12:38:00.045Z,11.40
2019-04-05T12:40:28.440Z,11.40
2019-04-05T12:42:56.849Z,11.40
2019-04-05T12:45:25.271Z,11.50
2019-04-05T12:47:53.736Z,11.50
2019-04-05T12:50:22.171Z,11.60
2019-04-05T12:52:50.572Z,11.60
2019-04-05T12:55:18.967Z,11.60
2019-04-05T12:57:48.557Z,11.60
2019-04-05T13:00:18.834Z,11.70
2019-04-05T13:02:49.786Z,11.70
2019-04-05T13:05:20.409Z,11.70
2019-04-05T13:07:47.941Z,11.70
2019-04-05T13:10:16.542Z,11.80
2019-04-05T13:12:46.472Z,11.70
2019-04-05T13:15:17.121Z,11.70
2019-04-05T13:17:45.279Z,11.70
2019-04-05T13:20:13.848Z,11.70
2019-04-05T13:22:42.260Z,11.60
2019-04-05T13:25:11.526Z,11.60
2019-04-05T13:27:41.513Z,11.60
2019-04-05T13:30:10.681Z,11.50
2019-04-05T13:32:39.123Z,11.50
2019-04-05T13:35:07.866Z,11.30
2019-04-05T13:37:36.279Z,11.30
2019-04-05T13:40:06.799Z,11.30
2019-04-05T13:42:35.581Z,11.40
2019-04-05T13:45:07.231Z,11.50
2019-04-05T13:47:38.927Z,11.50
2019-04-05T13:50:10.886Z,11.50
2019-04-05T13:52:39.231Z,11.50
2019-04-05T13:55:10.457Z,11.40
2019-04-05T13:57:38.441Z,11.40
2019-04-05T14:00:09.609Z,11.40
2019-04-05T14:02:38.063Z,11.50
2019-04-05T14:05:07.115Z,11.50
2019-04-05T14:07:35.509Z,11.60
2019-04-05T14:10:10.475Z,11.60
2019-04-05T14:12:37.702Z,11.70
2019-04-05T14:15:10.708Z,11.80
2019-04-05T14:17:37.793Z,11.90
2019-04-05T14:20:08.943Z,11.90
2019-04-05T14:22:36.844Z,11.90
2019-04-05T14:25:07.785Z,11.90
2019-04-05T14:27:36.266Z,12.00
2019-04-05T14:30:06.922Z,12.10
2019-04-05T14:32:35.390Z,12.20
2019-04-05T14:35:07.778Z,12.20
2019-04-05T14:37:35.632Z,12.20
2019-04-05T14:40:09.554Z,12.10
2019-04-05T14:42:38.358Z,12.00
2019-04-05T14:45:08.029Z,11.80
2019-04-05T14:47:36.424Z,11.70
2019-04-05T14:50:07.151Z,11.60
2019-04-05T14:52:35.818Z,11.50
2019-04-05T14:55:05.627Z,11.50
2019-04-05T14:57:35.610Z,11.40
2019-04-05T15:00:07.193Z,11.50
2019-04-05T15:02:35.597Z,11.40
2019-04-05T15:05:06.468Z,11.40
2019-04-05T15:07:37.587Z,11.40
2019-04-05T15:10:05.852Z,11.50
2019-04-05T15:12:34.279Z,11.50
2019-04-05T15:15:02.709Z,11.50
2019-04-05T15:17:31.113Z,11.50
2019-04-05T15:19:59.595Z,11.40
2019-04-05T15:22:28.010Z,11.40
2019-04-05T15:24:56.413Z,11.40
2019-04-05T15:27:24.856Z,11.40
2019-04-05T15:29:55.477Z,11.30
2019-04-05T15:32:25.425Z,11.30
2019-04-05T15:34:53.720Z,11.30
2019-04-05T15:37:22.116Z,11.20
2019-04-05T15:39:50.509Z,11.20
2019-04-05T15:42:18.961Z,11.20
2019-04-05T15:44:47.366Z,11.20
2019-04-05T15:47:15.771Z,11.20
2019-04-05T15:49:44.203Z,11.20
2019-04-05T15:52:18.516Z,11.20
2019-04-05T15:54:43.276Z,11.20
2019-04-05T15:57:11.828Z,11.20
2019-04-05T15:59:40.365Z,11.20
2019-04-05T16:02:08.763Z,11.20
2019-04-05T16:04:37.196Z,11.10
2019-04-05T16:07:05.603Z,11.10
2019-04-05T16:09:34.068Z,11.00
2019-04-05T16:12:02.497Z,11.00
2019-04-05T16:14:31.169Z,10.90
2019-04-05T16:16:59.572Z,10.90
2019-04-05T16:19:27.977Z,10.80
2019-04-05T16:21:56.415Z,10.80
2019-04-05T16:24:24.820Z,10.80
2019-04-05T16:26:53.236Z,10.70
2019-04-05T16:29:21.703Z,10.80
2019-04-05T16:31:50.196Z,10.80
2019-04-05T16:34:18.593Z,10.80
2019-04-05T16:36:47.036Z,10.70
2019-04-05T16:39:17.132Z,10.70
2019-04-05T16:41:45.540Z,10.60
2019-04-05T16:44:14.148Z,10.60
2019-04-05T16:46:42.551Z,10.60
2019-04-05T16:49:10.993Z,10.70
2019-04-05T16:51:39.421Z,10.60
2019-04-05T16:54:07.833Z,10.60
2019-04-05T16:56:36.224Z,10.60
2019-04-05T16:59:04.938Z,10.50
2019-04-05T17:01:33.340Z,10.50
2019-04-05T17:04:01.925Z,10.50
2019-04-05T17:06:30.356Z,10.50
2019-04-05T17:08:58.757Z,10.40
2019-04-05T17:11:27.188Z,10.40
2019-04-05T17:13:59.431Z,10.40
2019-04-05T17:16:25.755Z,10.40
2019-04-05T17:18:54.151Z,10.40
2019-04-05T17:21:22.586Z,10.30
2019-04-05T17:23:50.989Z,10.30
2019-04-05T17:26:19.387Z,10.30
2019-04-05T17:28:47.825Z,10.30
2019-04-05T17:31:16.226Z,10.30
2019-04-05T17:33:44.634Z,10.30
2019-04-05T17:36:13.080Z,10.30
2019-04-05T17:38:41.485Z,10.20
2019-04-05T17:41:09.885Z,10.30
2019-04-05T17:43:38.314Z,10.20
2019-04-05T17:46:07.703Z,10.30
2019-04-05T17:48:36.104Z,10.30
2019-04-05T17:51:04.621Z,10.30
2019-04-05T17:53:33.088Z,10.30
2019-04-05T17:56:01.708Z,10.20
2019-04-05T17:58:32.419Z,10.20
2019-04-05T18:01:01.076Z,10.20
2019-04-05T18:03:29.480Z,10.20
2019-04-05T18:05:57.953Z,10.10
2019-04-05T18:08:26.345Z,10.10
2019-04-05T18:10:55.014Z,10.10
2019-04-05T18:13:23.446Z,10.10
2019-04-05T18:15:53.094Z,10.00
2019-04-05T18:18:21.759Z,10.00
2019-04-05T18:20:50.163Z,10.00
2019-04-05T18:23:24.866Z,10.00
2019-04-05T18:25:48.719Z,10.00
2019-04-05T18:28:17.132Z,10.00
2019-04-05T18:30:46.094Z,9.90
2019-04-05T18:33:14.537Z,9.90
2019-04-05T18:35:42.950Z,9.90
2019-04-05T18:38:11.342Z,9.90
2019-04-05T18:40:40.531Z,9.90
2019-04-05T18:43:09.108Z,9.90
2019-04-05T18:45:37.753Z,9.80
2019-04-05T18:48:06.419Z,9.80
2019-04-05T18:50:34.807Z,9.70
2019-04-05T18:53:03.291Z,9.70
2019-04-05T18:55:32.025Z,9.80
2019-04-05T18:58:00.501Z,9.80
2019-04-05T19:00:29.090Z,9.80
2019-04-05T19:02:57.873Z,9.70
2019-04-05T19:05:26.268Z,9.70
2019-04-05T19:07:54.680Z,9.70
2019-04-05T19:10:36.222Z,9.60
2019-04-05T19:12:53.495Z,9.60
2019-04-05T19:15:22.065Z,9.60
2019-04-05T19:17:50.488Z,9.60
2019-04-05T19:20:18.957Z,9.60
2019-04-05T19:22:47.376Z,9.70
2019-04-05T19:25:15.846Z,9.70
2019-04-05T19:27:44.281Z,9.60
2019-04-05T19:50:15.495Z,9.70
2019-04-05T19:52:43.895Z,9.60
2019-04-05T19:55:12.292Z,9.60
2019-04-05T19:57:40.728Z,9.50
2019-04-05T20:00:09.368Z,9.50
2019-04-05T20:02:37.858Z,9.50
2019-04-05T20:05:07.900Z,9.50
2019-04-05T20:07:39.370Z,9.50
2019-04-05T20:10:08.104Z,9.50
2019-04-05T20:12:36.538Z,9.50
2019-04-05T20:15:06.980Z,9.50
2019-04-05T20:17:35.425Z,9.50
2019-04-05T20:20:06.200Z,9.40
2019-04-05T20:22:34.596Z,9.40
2019-04-05T20:25:04.249Z,9.40
2019-04-05T20:27:32.677Z,9.40
2019-04-05T20:30:01.092Z,9.40
2019-04-05T20:32:29.486Z,9.40
2019-04-05T20:34:57.920Z,9.40
2019-04-05T20:37:26.319Z,9.40
2019-04-05T20:39:54.726Z,9.50
2019-04-05T20:42:23.156Z,9.40
2019-04-05T20:44:51.538Z,9.40
2019-04-05T20:47:19.940Z,9.40
2019-04-05T20:49:48.368Z,9.40
2019-04-05T20:52:16.778Z,9.30
2019-04-05T20:54:45.188Z,9.30
2019-04-05T20:57:13.633Z,9.30
2019-04-05T20:59:42.045Z,9.30
2019-04-05T21:02:10.444Z,9.30
2019-04-05T21:04:38.875Z,9.30
2019-04-05T21:07:07.301Z,9.30
2019-04-05T21:09:35.732Z,9.30
2019-04-05T21:12:04.204Z,9.30
2019-04-05T21:14:32.605Z,9.30
2019-04-05T21:17:01.004Z,9.30
2019-04-05T21:19:29.448Z,9.30
2019-04-05T21:21:57.883Z,9.30
2019-04-05T21:24:35.715Z,9.30
2019-04-05T21:26:56.459Z,9.20
2019-04-05T21:29:24.864Z,9.20
2019-04-05T21:31:53.266Z,9.20
2019-04-05T21:34:21.685Z,9.10
2019-04-05T21:36:50.087Z,9.10
2019-04-05T21:39:18.486Z,9.10
2019-04-05T21:41:46.904Z,9.10
2019-04-05T21:44:15.298Z,9.10
2019-04-05T21:46:43.741Z,9.10
2019-04-05T21:49:12.132Z,9.10
2019-04-05T21:51:40.527Z,9.10
2019-04-05T21:54:09.092Z,9.10
2019-04-05T21:56:37.500Z,9.10
2019-04-05T21:59:05.897Z,9.10
2019-04-05T22:01:34.487Z,9.10
2019-04-05T22:04:03.404Z,9.10
2019-04-05T22:06:33.003Z,9.10
2019-04-05T22:09:01.421Z,9.10
2019-04-05T22:11:29.827Z,9.10
2019-04-05T22:13:58.224Z,9.00
2019-04-05T22:16:26.938Z,9.00
2019-04-05T22:18:55.332Z,9.00
2019-04-05T22:21:23.784Z,9.00
2019-04-05T22:23:52.385Z,9.00
2019-04-05T22:26:20.782Z,9.00
2019-04-05T22:28:49.224Z,9.00
2019-04-05T22:31:17.919Z,9.00
2019-04-05T22:33:46.317Z,9.00
2019-04-05T22:36:14.713Z,9.00
2019-04-05T22:38:43.124Z,9.00
2019-04-05T22:41:11.540Z,9.00
2019-04-05T22:43:39.936Z,9.00
2019-04-05T22:46:08.353Z,8.90
2019-04-05T22:48:36.755Z,8.90
2019-04-05T22:51:05.178Z,8.90
2019-04-05T22:53:33.602Z,8.90
2019-04-05T22:56:02.027Z,8.90
2019-04-05T22:58:30.425Z,8.90
2019-04-05T23:00:58.879Z,9.00
2019-04-05T23:03:27.311Z,9.00
2019-04-05T23:05:55.708Z,9.00
2019-04-05T23:08:24.093Z,9.10
2019-04-05T23:10:52.516Z,9.10
2019-04-05T23:13:20.914Z,9.10
2019-04-05T23:15:49.316Z,9.10
2019-04-05T23:18:17.738Z,9.10
2019-04-05T23:20:46.137Z,9.10
2019-04-05T23:23:14.535Z,9.10
2019-04-05T23:25:43.118Z,9.10
2019-04-05T23:28:11.494Z,9.10
2019-04-05T23:30:39.892Z,9.10
2019-04-05T23:33:08.317Z,9.10
2019-04-05T23:35:36.707Z,9.10
2019-04-05T23:38:05.159Z,9.10
2019-04-05T23:40:33.579Z,9.10
2019-04-05T23:43:02.056Z,9.10
2019-04-05T23:45:30.476Z,9.10
2019-04-05T23:47:58.906Z,9.10
2019-04-05T23:50:27.300Z,9.10
2019-04-05T23:52:55.707Z,9.10
2019-04-05T23:55:32.789Z,9.10
2019-04-05T23:57:54.257Z,9.10
